Time;durP1;ratioP1;P1;durP2;ratioP2;P2;SDS_P1;SDS_P2;PMS_P1;PMS_P2;Temp;Humidity;BMP_temperature;BMP_pressure;BME280_temperature;BME280_humidity;BME280_pressure;Samples;Min_cycle;Max_cycle;Signal;HPM_P1;HPM_P2
2022/05/09 00:02:23;;;;;;;1999.90;999.90;;;15.00;99.90;;;;;;4947674;28;20237;-69
2022/05/09 00:04:49;;;;;;;1999.90;999.90;;;15.00;99.90;;;;;;4947597;29;20183;-69
2022/05/09 00:07:14;;;;;;;1999.90;999.90;;;15.00;99.90;;;;;;4948174;28;20289;-69
2022/05/09 00:09:40;;;;;;;1999.90;999.90;;;15.00;99.90;;;;;;4947623;28;20586;-69
2022/05/09 00:12:06;;;;;;;1999.90;999.90;;;14.90;99.90;;;;;;4948472;28;20177;-68
2022/05/09 00:14:32;;;;;;;1999.90;999.90;;;14.90;99.90;;;;;;4946795;29;20203;-71
2022/05/09 00:16:58;;;;;;;1999.90;999.90;;;14.90;99.90;;;;;;4947878;28;20446;-71
2022/05/09 00:19:23;;;;;;;1999.90;999.90;;;14.80;99.90;;;;;;4948013;28;20208;-71
2022/05/09 00:21:51;;;;;;;1999.90;999.90;;;14.70;99.90;;;;;;4947894;28;20656;-69
2022/05/09 00:24:18;;;;;;;1999.90;999.90;;;14.60;99.90;;;;;;4946598;28;20184;-69
2022/05/09 00:26:48;;;;;;;1999.90;999.90;;;14.60;99.90;;;;;;4948255;29;20415;-69
2022/05/09 00:29:15;;;;;;;1999.90;999.90;;;14.60;99.90;;;;;;4947303;29;20435;-69
2022/05/09 00:31:43;;;;;;;1999.90;999.90;;;14.70;99.90;;;;;;4947616;29;20468;-69
2022/05/09 00:34:10;;;;;;;1999.90;999.90;;;14.60;99.90;;;;;;4947022;28;21103;-69
2022/05/09 00:36:37;;;;;;;1999.90;999.90;;;14.60;99.90;;;;;;4947792;28;20416;-69
2022/05/09 00:39:02;;;;;;;1999.90;999.90;;;14.60;99.90;;;;;;4947167;29;20411;-69
2022/05/09 00:41:28;;;;;;;1999.90;999.90;;;14.60;99.90;;;;;;4948041;29;20484;-69
2022/05/09 00:43:56;;;;;;;1999.90;999.90;;;14.60;99.90;;;;;;4947027;28;20187;-71
2022/05/09 00:46:22;;;;;;;1999.90;999.90;;;14.60;99.90;;;;;;4946892;29;20794;-70
2022/05/09 00:48:49;;;;;;;1999.90;999.90;;;14.50;99.90;;;;;;4947864;29;20422;-69
2022/05/09 00:51:20;;;;;;;1999.90;999.90;;;14.40;99.90;;;;;;4948422;29;20526;-71
2022/05/09 00:53:48;;;;;;;1999.90;999.90;;;14.40;99.90;;;;;;4950442;29;20439;-69
2022/05/09 00:56:21;;;;;;;1999.90;999.90;;;14.40;99.90;;;;;;4950439;29;20871;-69
2022/05/09 00:58:52;;;;;;;1999.90;999.90;;;14.30;99.90;;;;;;4951079;29;20415;-71
2022/05/09 01:01:20;;;;;;;1999.90;999.90;;;14.30;99.90;;;;;;4950587;29;20531;-69
2022/05/09 01:04:02;;;;;;;1999.90;999.90;;;14.20;99.90;;;;;;4950463;29;20962;-71
2022/05/09 01:06:28;;;;;;;1999.90;999.90;;;14.20;99.90;;;;;;4950380;29;20931;-69
2022/05/09 01:08:53;;;;;;;1999.90;999.90;;;14.20;99.90;;;;;;4950495;28;20456;-69
2022/05/09 01:11:22;;;;;;;1999.90;999.90;;;14.20;99.90;;;;;;4950901;28;20195;-69
2022/05/09 01:13:53;;;;;;;1999.90;999.90;;;14.20;99.90;;;;;;4950450;29;20238;-69
2022/05/09 01:16:20;;;;;;;1999.90;999.90;;;14.20;99.90;;;;;;4949392;29;20514;-69
2022/05/09 01:18:46;;;;;;;1999.90;999.90;;;14.10;99.90;;;;;;4950787;29;20425;-70
2022/05/09 01:21:35;;;;;;;1999.90;999.90;;;14.10;99.90;;;;;;4950060;28;20489;-69
2022/05/09 01:24:02;;;;;;;1999.90;999.90;;;14.00;99.90;;;;;;4950220;28;20494;-69
2022/05/09 01:26:28;;;;;;;1999.90;999.90;;;14.00;99.90;;;;;;4950477;29;21197;-69
2022/05/09 01:28:59;;;;;;;1999.90;999.90;;;14.00;99.90;;;;;;4950085;28;20560;-71
2022/05/09 01:31:26;;;;;;;1999.90;999.90;;;13.90;99.90;;;;;;4950252;29;20215;-71
2022/05/09 01:33:53;;;;;;;1999.90;999.90;;;13.80;99.90;;;;;;4950664;29;20418;-71
2022/05/09 01:36:25;;;;;;;1999.90;999.90;;;13.80;99.90;;;;;;4949047;29;20419;-71
2022/05/09 01:38:56;;;;;;;1999.90;999.90;;;13.70;99.90;;;;;;4950126;29;20416;-71
2022/05/09 01:41:26;;;;;;;1999.90;999.90;;;13.70;99.90;;;;;;4950053;28;20477;-71
2022/05/09 01:43:55;;;;;;;1999.90;999.90;;;13.70;99.90;;;;;;4951898;22;20493;-69
2022/05/09 01:46:28;;;;;;;1999.90;999.90;;;13.60;99.90;;;;;;4911742;28;20419;-70
2022/05/09 01:51:40;;;;;;;1999.90;999.90;;;13.50;99.90;;;;;;4912580;28;20432;-70
2022/05/09 01:54:06;;;;;;;1999.90;999.90;;;13.50;99.90;;;;;;4979151;28;20435;-70
2022/05/09 01:56:34;;;;;;;1999.90;999.90;;;13.40;99.90;;;;;;5012062;28;20422;-70
2022/05/09 01:59:01;;;;;;;1999.90;999.90;;;13.30;99.90;;;;;;5011799;28;20184;-70
2022/05/09 02:01:30;;;;;;;1999.90;999.90;;;13.10;99.90;;;;;;5011424;28;20806;-70
2022/05/09 02:03:57;;;;;;;1999.90;999.90;;;13.10;99.90;;;;;;5011167;28;20868;-70
2022/05/09 02:06:23;;;;;;;1999.90;999.90;;;13.00;99.90;;;;;;5011438;28;20414;-70
2022/05/09 02:08:49;;;;;;;1999.90;999.90;;;12.80;99.90;;;;;;5011508;28;20428;-70
2022/05/09 02:11:15;;;;;;;1999.90;999.90;;;12.80;99.90;;;;;;5011324;28;20208;-70
2022/05/09 02:13:41;;;;;;;1999.90;999.90;;;12.80;99.90;;;;;;5011044;28;20991;-70
2022/05/09 02:16:08;;;;;;;1999.90;999.90;;;12.70;99.90;;;;;;5010130;28;20193;-70
2022/05/09 02:18:34;;;;;;;1999.90;999.90;;;12.70;99.90;;;;;;5011114;28;20465;-70
2022/05/09 02:21:00;;;;;;;1999.90;999.90;;;12.70;99.90;;;;;;5010470;28;20466;-70
2022/05/09 02:23:26;;;;;;;1999.90;999.90;;;12.70;99.90;;;;;;5010646;28;20429;-70
2022/05/09 02:25:52;;;;;;;1999.90;999.90;;;12.60;99.90;;;;;;5010503;28;20210;-70
2022/05/09 02:28:17;;;;;;;1999.90;999.90;;;12.60;99.90;;;;;;5010309;28;20183;-70
2022/05/09 02:30:43;;;;;;;1999.90;999.90;;;12.60;99.90;;;;;;5010647;28;20974;-70
2022/05/09 02:33:10;;;;;;;1999.90;999.90;;;12.50;99.90;;;;;;5010821;28;20261;-70
2022/05/09 02:35:37;;;;;;;1999.90;999.90;;;12.50;99.90;;;;;;5009644;28;20609;-70
2022/05/09 02:38:03;;;;;;;1999.90;999.90;;;12.50;99.90;;;;;;5010386;28;20441;-70
2022/05/09 02:40:29;;;;;;;1999.90;999.90;;;12.50;99.90;;;;;;5010416;28;20461;-70
2022/05/09 02:42:58;;;;;;;1999.90;999.90;;;12.40;99.90;;;;;;5010044;28;20420;-70
2022/05/09 02:45:25;;;;;;;1999.90;999.90;;;12.40;99.90;;;;;;5009939;28;20658;-70
2022/05/09 02:47:52;;;;;;;1999.90;999.90;;;12.30;99.90;;;;;;5010297;28;20417;-70
2022/05/09 02:50:19;;;;;;;1999.90;999.90;;;12.30;99.90;;;;;;5009986;28;20794;-70
2022/05/09 02:52:46;;;;;;;1999.90;999.90;;;12.30;99.90;;;;;;5010512;28;20412;-70
2022/05/09 02:55:12;;;;;;;1999.90;999.90;;;12.20;99.90;;;;;;5009855;28;21177;-70
2022/05/09 02:57:39;;;;;;;1999.90;999.90;;;12.20;99.90;;;;;;5009781;28;20836;-70
2022/05/09 03:00:09;;;;;;;1999.90;999.90;;;12.20;99.90;;;;;;5010113;28;20832;-70
2022/05/09 03:02:34;;;;;;;1999.90;999.90;;;12.20;99.90;;;;;;5010611;28;20417;-70
2022/05/09 03:05:00;;;;;;;1999.90;999.90;;;12.10;99.90;;;;;;5008954;28;20516;-70
2022/05/09 03:07:25;;;;;;;1999.90;999.90;;;11.90;99.90;;;;;;5010499;28;20178;-70
2022/05/09 03:09:51;;;;;;;1999.90;999.90;;;11.80;99.90;;;;;;5009666;28;20177;-70
2022/05/09 03:12:20;;;;;;;1999.90;999.90;;;11.70;99.90;;;;;;5009910;28;20255;-70
2022/05/09 03:14:47;;;;;;;1999.90;999.90;;;11.70;99.90;;;;;;5009463;28;20202;-70
2022/05/09 03:17:13;;;;;;;1999.90;999.90;;;11.70;99.90;;;;;;5009760;28;20418;-70
2022/05/09 03:19:39;;;;;;;1999.90;999.90;;;11.80;99.90;;;;;;5008881;28;20498;-70
2022/05/09 03:22:05;;;;;;;1999.90;999.90;;;11.70;99.90;;;;;;5010463;28;20440;-70
2022/05/09 03:24:31;;;;;;;1999.90;999.90;;;11.70;99.90;;;;;;5009063;28;20888;-70
2022/05/09 03:26:57;;;;;;;1999.90;999.90;;;11.60;99.90;;;;;;5009619;28;20491;-70
2022/05/09 03:29:26;;;;;;;1999.90;999.90;;;11.60;99.90;;;;;;5009572;28;20778;-70
2022/05/09 03:31:55;;;;;;;1999.90;999.90;;;11.60;99.90;;;;;;5009566;28;20416;-70
2022/05/09 03:34:21;;;;;;;1999.90;999.90;;;11.60;99.90;;;;;;5008556;28;20428;-70
2022/05/09 03:36:47;;;;;;;1999.90;999.90;;;11.50;99.90;;;;;;5010110;28;20430;-70
2022/05/09 03:39:13;;;;;;;1999.90;999.90;;;11.50;99.90;;;;;;5008902;28;20416;-70
2022/05/09 03:41:38;;;;;;;1999.90;999.90;;;11.50;99.90;;;;;;5003538;28;20439;-70
2022/05/09 03:44:05;;;;;;;1999.90;999.90;;;11.50;99.90;;;;;;5008859;28;20218;-70
2022/05/09 03:46:32;;;;;;;1999.90;999.90;;;11.50;99.90;;;;;;5009467;28;20252;-70
2022/05/09 03:49:00;;;;;;;1999.90;999.90;;;11.40;99.90;;;;;;5009202;28;20415;-70
2022/05/09 03:51:25;;;;;;;1999.90;999.90;;;11.40;99.90;;;;;;5009199;28;20491;-70
2022/05/09 03:53:51;;;;;;;1999.90;999.90;;;11.40;99.90;;;;;;5008981;28;21106;-70
2022/05/09 03:56:17;;;;;;;1999.90;999.90;;;11.40;99.90;;;;;;5008446;28;20181;-70
2022/05/09 03:58:43;;;;;;;1999.90;999.90;;;11.40;99.90;;;;;;5009594;28;20793;-70
2022/05/09 04:01:08;;;;;;;1999.90;999.90;;;11.40;99.90;;;;;;5008373;28;20425;-70
2022/05/09 04:03:34;;;;;;;1999.90;999.90;;;11.40;99.90;;;;;;5009134;28;20573;-70
2022/05/09 04:06:00;;;;;;;1999.90;999.90;;;11.40;99.90;;;;;;5008908;28;20177;-70
2022/05/09 04:08:26;;;;;;;1999.90;999.90;;;11.40;99.90;;;;;;5008898;28;20411;-70
2022/05/09 04:10:54;;;;;;;1999.90;999.90;;;11.40;99.90;;;;;;5008808;28;20862;-70
2022/05/09 04:13:19;;;;;;;1999.90;999.90;;;11.30;99.90;;;;;;5009174;28;20275;-70
2022/05/09 04:18:36;;;;;;;1999.90;999.90;;;11.40;99.90;;;;;;5009292;28;20188;-70
2022/05/09 04:21:02;;;;;;;1999.90;999.90;;;11.30;99.90;;;;;;5008203;28;20436;-70
2022/05/09 04:23:28;;;;;;;1999.90;999.90;;;11.30;99.90;;;;;;5009113;28;20522;-70
2022/05/09 04:25:53;;;;;;;1999.90;999.90;;;11.30;99.90;;;;;;5010475;28;20196;-70
2022/05/09 04:28:22;;;;;;;1999.90;999.90;;;11.30;99.90;;;;;;5015239;28;20184;-70
2022/05/09 04:30:48;;;;;;;1999.90;999.90;;;11.30;99.90;;;;;;5015147;28;20451;-70
2022/05/09 04:33:14;;;;;;;1999.90;999.90;;;11.30;99.90;;;;;;5015399;28;20485;-70
2022/05/09 04:35:41;;;;;;;1999.90;999.90;;;11.30;99.90;;;;;;5014541;28;20453;-70
2022/05/09 04:38:12;;;;;;;1999.90;999.90;;;11.20;99.90;;;;;;5015894;28;20576;-70
2022/05/09 04:40:37;;;;;;;1999.90;999.90;;;11.30;99.90;;;;;;5015674;28;20447;-70
2022/05/09 04:43:04;;;;;;;1999.90;999.90;;;11.30;99.90;;;;;;5014967;28;20440;-70
2022/05/09 04:45:30;;;;;;;1999.90;999.90;;;11.30;99.90;;;;;;5015439;28;20197;-70
2022/05/09 04:47:57;;;;;;;1999.90;999.90;;;11.40;99.90;;;;;;5015668;28;21114;-70
2022/05/09 04:50:25;;;;;;;1999.90;999.90;;;11.40;99.90;;;;;;5014992;28;20452;-70
2022/05/09 04:52:51;;;;;;;1999.90;999.90;;;11.40;99.90;;;;;;5015433;28;20412;-70
2022/05/09 04:55:17;;;;;;;1999.90;999.90;;;11.50;99.90;;;;;;5014785;28;20407;-70
2022/05/09 04:57:44;;;;;;;1999.90;999.90;;;11.50;99.90;;;;;;5015459;28;20643;-70
2022/05/09 05:00:19;;;;;;;1999.90;999.90;;;11.60;99.90;;;;;;5015593;28;20416;-70
2022/05/09 05:02:45;;;;;;;1999.90;999.90;;;11.50;99.90;;;;;;5015746;28;20421;-70
2022/05/09 05:05:10;;;;;;;1999.90;999.90;;;11.70;99.90;;;;;;5014545;28;20875;-70
2022/05/09 05:07:36;;;;;;;1999.90;999.90;;;11.70;99.90;;;;;;5015542;28;20181;-70
2022/05/09 05:10:03;;;;;;;1999.90;999.90;;;11.70;99.90;;;;;;5015755;28;20259;-70
2022/05/09 05:12:29;;;;;;;1999.90;999.90;;;11.80;99.90;;;;;;5015041;28;20420;-70
2022/05/09 05:14:55;;;;;;;1999.90;999.90;;;11.80;99.90;;;;;;5015164;28;20442;-70
2022/05/09 05:17:20;;;;;;;1999.90;999.90;;;11.90;99.90;;;;;;5015530;28;20181;-70
2022/05/09 05:19:48;;;;;;;1999.90;999.90;;;11.90;99.90;;;;;;5015162;28;20190;-70
2022/05/09 05:22:15;;;;;;;1999.90;999.90;;;12.00;99.90;;;;;;5015683;28;20614;-70
2022/05/09 05:24:44;;;;;;;1999.90;999.90;;;12.10;99.90;;;;;;5014721;28;20590;-70
2022/05/09 05:27:11;;;;;;;1999.90;999.90;;;12.10;99.90;;;;;;5015127;28;20495;-70
2022/05/09 05:29:37;;;;;;;1999.90;999.90;;;12.20;99.90;;;;;;5015188;28;20452;-70
2022/05/09 05:32:14;;;;;;;1999.90;999.90;;;12.30;99.90;;;;;;5014366;28;21177;-70
2022/05/09 05:34:40;;;;;;;1999.90;999.90;;;12.40;99.90;;;;;;5014406;28;20272;-70
2022/05/09 05:37:05;;;;;;;1999.90;999.90;;;12.40;99.90;;;;;;5013278;28;20497;-70
2022/05/09 05:39:34;;;;;;;1999.90;999.90;;;12.50;99.90;;;;;;5012102;28;20667;-70
2022/05/09 05:41:59;;;;;;;1999.90;999.90;;;12.60;99.90;;;;;;5012327;28;20268;-70
2022/05/09 05:44:25;;;;;;;1999.90;999.90;;;12.70;99.90;;;;;;5011041;28;20949;-70
2022/05/09 05:46:51;;;;;;;1999.90;999.90;;;12.70;99.90;;;;;;5012607;28;20178;-70
2022/05/09 05:49:16;;;;;;;1999.90;999.90;;;12.80;99.90;;;;;;5011568;28;21012;-70
2022/05/09 05:51:42;;;;;;;1999.90;999.90;;;12.90;99.90;;;;;;5012167;28;20263;-70
2022/05/09 05:54:07;;;;;;;1999.90;999.90;;;12.90;99.90;;;;;;5011550;28;20200;-70
2022/05/09 05:56:36;;;;;;;1999.90;999.90;;;13.00;99.90;;;;;;5011817;28;20267;-70
2022/05/09 05:59:02;;;;;;;1999.90;999.90;;;13.10;99.90;;;;;;5010929;28;20657;-70
2022/05/09 06:01:27;;;;;;;1999.90;999.90;;;13.10;99.90;;;;;;5012158;28;20571;-70
2022/05/09 06:03:53;;;;;;;1999.90;999.90;;;13.10;99.90;;;;;;5011158;28;20332;-70
2022/05/09 06:06:18;;;;;;;1999.90;999.90;;;13.20;99.90;;;;;;5011460;28;20186;-70
2022/05/09 06:08:45;;;;;;;1999.90;999.90;;;13.30;99.90;;;;;;5011859;28;20172;-70
2022/05/09 06:11:12;;;;;;;1999.90;999.90;;;13.30;99.90;;;;;;5011023;28;20201;-70
2022/05/09 06:13:38;;;;;;;1999.90;999.90;;;13.40;99.90;;;;;;5011371;28;20438;-70
2022/05/09 06:16:04;;;;;;;1999.90;999.90;;;13.50;99.90;;;;;;5010125;28;20409;-70
2022/05/09 06:18:29;;;;;;;1999.90;999.90;;;13.50;99.90;;;;;;5010772;28;20179;-71
2022/05/09 06:20:55;;;;;;;1999.90;999.90;;;13.70;99.90;;;;;;5011278;28;21254;-70
2022/05/09 06:23:22;;;;;;;1999.90;999.90;;;13.80;99.90;;;;;;5010644;28;20188;-70
2022/05/09 06:25:49;;;;;;;1999.90;999.90;;;13.80;99.90;;;;;;5009924;28;20219;-71
2022/05/09 06:28:15;;;;;;;1999.90;999.90;;;13.90;99.90;;;;;;5011061;28;20497;-70
2022/05/09 06:30:42;;;;;;;1999.90;999.90;;;14.00;99.90;;;;;;5010511;28;20495;-70
2022/05/09 06:33:09;;;;;;;1999.90;999.90;;;14.20;99.90;;;;;;5010672;28;20425;-71
2022/05/09 06:35:40;;;;;;;1999.90;999.90;;;14.30;99.90;;;;;;5010035;28;20448;-71
2022/05/09 06:38:06;;;;;;;1999.90;999.90;;;14.40;99.90;;;;;;5010414;28;20409;-70
2022/05/09 06:40:35;;;;;;;1999.90;999.90;;;14.50;99.90;;;;;;5010358;28;20498;-70
2022/05/09 06:43:03;;;;;;;1999.90;999.90;;;14.50;99.90;;;;;;5010545;28;20172;-71
2022/05/09 06:45:29;;;;;;;1999.90;999.90;;;14.60;99.90;;;;;;5009545;28;20590;-70
2022/05/09 06:47:56;;;;;;;1999.90;999.90;;;14.70;99.90;;;;;;4962341;28;20434;-70
2022/05/09 06:50:23;;;;;;;1999.90;999.90;;;14.80;99.90;;;;;;4929346;28;20506;-72
2022/05/09 06:52:49;;;;;;;1999.90;999.90;;;14.90;99.90;;;;;;4904682;28;20857;-72
2022/05/09 06:55:15;;;;;;;1999.90;999.90;;;15.00;99.90;;;;;;4892882;28;20475;-74
2022/05/09 06:57:43;;;;;;;1999.90;999.90;;;15.00;99.90;;;;;;4894695;28;20656;-72
2022/05/09 07:00:15;;;;;;;1999.90;999.90;;;15.10;99.90;;;;;;4893702;28;20773;-72
2022/05/09 07:02:41;;;;;;;1999.90;999.90;;;15.20;99.90;;;;;;4893049;28;21002;-71
2022/05/09 07:05:09;;;;;;;1999.90;999.90;;;15.30;99.90;;;;;;4891626;28;20534;-73
2022/05/09 07:07:35;;;;;;;1999.90;999.90;;;15.40;99.90;;;;;;4891738;28;20424;-74
2022/05/09 07:10:02;;;;;;;1999.90;999.90;;;15.40;99.90;;;;;;4891479;28;20962;-73
2022/05/09 07:12:28;;;;;;;1999.90;999.90;;;15.60;99.90;;;;;;4891898;28;20472;-72
2022/05/09 07:14:53;;;;;;;1999.90;999.90;;;15.60;99.90;;;;;;4889961;28;20431;-72
2022/05/09 07:17:19;;;;;;;1999.90;999.90;;;15.70;99.90;;;;;;4891030;28;20184;-71
2022/05/09 07:19:45;;;;;;;1999.90;999.90;;;15.80;99.90;;;;;;4892522;28;20188;-74
2022/05/09 07:22:11;;;;;;;1999.90;999.90;;;15.90;99.90;;;;;;4891500;28;20185;-71
2022/05/09 07:24:36;;;;;;;1999.90;999.90;;;15.90;99.90;;;;;;4890986;28;20264;-74
2022/05/09 07:27:02;;;;;;;1999.90;999.90;;;16.10;99.90;;;;;;4891395;28;20494;-72
2022/05/09 07:29:28;;;;;;;1999.90;999.90;;;16.20;99.90;;;;;;4891127;28;20185;-71
2022/05/09 07:31:53;;;;;;;1999.90;999.90;;;16.30;99.90;;;;;;4891706;28;20233;-71
2022/05/09 07:34:19;;;;;;;1999.90;999.90;;;16.50;99.90;;;;;;4890770;28;20894;-73
2022/05/09 07:36:45;;;;;;;1999.90;999.90;;;16.60;99.90;;;;;;4890746;28;20218;-72
2022/05/09 07:39:11;;;;;;;1999.90;999.90;;;16.80;99.90;;;;;;4891655;28;20435;-73
2022/05/09 07:41:38;;;;;;;1999.90;999.90;;;16.90;99.90;;;;;;4891127;28;20453;-74
2022/05/09 07:44:04;;;;;;;1999.90;999.90;;;17.00;99.90;;;;;;4890094;28;20879;-74
2022/05/09 07:46:29;;;;;;;1999.90;999.90;;;17.10;99.90;;;;;;4892333;28;20266;-74
2022/05/09 07:48:55;;;;;;;1999.90;999.90;;;17.20;99.90;;;;;;4890731;28;20192;-72
2022/05/09 07:51:21;;;;;;;1999.90;999.90;;;17.20;99.90;;;;;;4890887;28;20200;-73
2022/05/09 07:53:47;;;;;;;1999.90;999.90;;;17.30;99.90;;;;;;4891474;28;20710;-72
2022/05/09 07:56:12;;;;;;;1999.90;999.90;;;17.30;99.90;;;;;;4890093;28;20663;-72
2022/05/09 07:58:39;;;;;;;1999.90;999.90;;;17.20;99.90;;;;;;4891229;28;20414;-72
2022/05/09 08:01:05;;;;;;;1999.90;999.90;;;17.30;99.90;;;;;;4890269;28;20721;-72
2022/05/09 08:03:33;;;;;;;1999.90;999.90;;;17.40;99.90;;;;;;4890768;28;20534;-72
2022/05/09 08:06:02;;;;;;;1999.90;999.90;;;17.50;99.90;;;;;;4890537;28;20930;-73
2022/05/09 08:08:32;;;;;;;1999.90;999.90;;;17.60;99.90;;;;;;4890962;28;20440;-72
2022/05/09 08:11:00;;;;;;;1999.90;999.90;;;17.80;99.90;;;;;;4890765;28;20472;-72
2022/05/09 08:13:29;;;;;;;1999.90;999.90;;;17.90;99.90;;;;;;4913348;28;20456;-72
2022/05/09 08:15:55;;;;;;;1999.90;999.90;;;18.10;99.90;;;;;;4927538;29;20422;-73
2022/05/09 08:18:21;;;;;;;1999.90;999.90;;;18.20;99.90;;;;;;4915642;29;20429;-73
2022/05/09 08:20:48;;;;;;;1999.90;999.90;;;18.30;99.90;;;;;;4921671;28;20789;-70
2022/05/09 08:23:19;;;;;;;1999.90;999.90;;;18.50;99.90;;;;;;4922679;29;20536;-69
2022/05/09 08:25:47;;;;;;;1999.90;999.90;;;18.60;99.90;;;;;;4913007;29;20464;-69
2022/05/09 08:28:14;;;;;;;1999.90;999.90;;;18.70;99.90;;;;;;4914844;29;20429;-69
2022/05/09 08:30:40;;;;;;;1999.90;999.90;;;18.80;99.90;;;;;;4915299;29;20510;-69
2022/05/09 08:33:10;;;;;;;1999.90;999.90;;;18.90;99.90;;;;;;4911800;29;20871;-69
2022/05/09 08:35:36;;;;;;;1999.90;999.90;;;19.00;99.90;;;;;;4910688;29;20176;-69
2022/05/09 08:38:02;;;;;;;1999.90;999.90;;;19.20;99.90;;;;;;4914935;29;20519;-69
2022/05/09 08:41:17;;;;;;;1999.90;999.90;;;19.30;99.90;;;;;;4911351;29;20575;-69
2022/05/09 08:44:07;;;;;;;1999.90;999.90;;;19.40;99.90;;;;;;4909577;29;20502;-69
2022/05/09 08:46:53;;;;;;;1999.90;999.90;;;19.60;99.90;;;;;;4910583;29;20435;-69
2022/05/09 08:49:40;;;;;;;1999.90;999.90;;;19.80;99.90;;;;;;4904258;29;20418;-69
2022/05/09 08:52:24;;;;;;;1999.90;999.90;;;19.80;99.90;;;;;;4911866;29;20459;-69
2022/05/09 08:54:51;;;;;;;1999.90;999.90;;;19.80;99.90;;;;;;4913599;29;20440;-70
2022/05/09 08:57:23;;;;;;;1999.90;999.90;;;19.90;99.90;;;;;;4911093;28;20410;-69
2022/05/09 08:59:57;;;;;;;1999.90;999.90;;;20.00;99.90;;;;;;4911126;29;20459;-69
2022/05/09 09:02:39;;;;;;;1999.90;999.90;;;20.20;99.90;;;;;;4911634;29;20391;-69
2022/05/09 09:05:05;;;;;;;1999.90;999.90;;;20.30;99.90;;;;;;4910445;29;20517;-69
2022/05/09 09:07:50;;;;;;;1999.90;999.90;;;20.50;99.90;;;;;;4911702;29;20471;-69
2022/05/09 09:10:32;;;;;;;1999.90;999.90;;;20.60;99.90;;;;;;4910917;29;20464;-69
2022/05/09 09:13:22;;;;;;;1999.90;999.90;;;20.70;99.90;;;;;;4913210;29;20408;-69
2022/05/09 09:16:03;;;;;;;1999.90;999.90;;;20.80;99.90;;;;;;4913987;29;20475;-69
2022/05/09 09:18:51;;;;;;;1999.90;999.90;;;20.90;99.90;;;;;;4914817;29;20434;-69
2022/05/09 09:21:39;;;;;;;1999.90;999.90;;;21.00;99.90;;;;;;4914097;29;20417;-69
2022/05/09 09:24:10;;;;;;;1999.90;999.90;;;21.10;99.90;;;;;;4913958;29;21009;-69
2022/05/09 09:26:47;;;;;;;1999.90;999.90;;;21.10;99.90;;;;;;4914130;29;20459;-69
2022/05/09 09:29:44;;;;;;;1999.90;999.90;;;21.10;99.90;;;;;;4916078;29;20442;-69
2022/05/09 09:32:15;;;;;;;1999.90;999.90;;;21.00;99.90;;;;;;4895752;29;20415;-69
2022/05/09 09:34:53;;;;;;;1999.90;999.90;;;21.10;99.90;;;;;;4894820;29;20405;-69
2022/05/09 09:37:38;;;;;;;1999.90;999.90;;;21.30;99.90;;;;;;4895739;28;20423;-69
2022/05/09 09:40:05;;;;;;;1999.90;999.90;;;21.40;99.90;;;;;;4895035;29;20422;-69
2022/05/09 09:42:31;;;;;;;1999.90;999.90;;;21.60;99.90;;;;;;4992587;28;20425;-69
2022/05/09 09:44:58;;;;;;;1999.90;999.90;;;21.70;99.90;;;;;;4894743;29;20433;-69
2022/05/09 09:47:27;;;;;;;1999.90;999.90;;;21.80;99.90;;;;;;4895570;29;20420;-69
2022/05/09 09:50:19;;;;;;;1999.90;999.90;;;22.00;99.90;;;;;;4894728;29;20580;-69
2022/05/09 09:52:58;;;;;;;1999.90;999.90;;;22.10;99.90;;;;;;4895293;29;20389;-69
2022/05/09 09:55:29;;;;;;;1999.90;999.90;;;22.20;99.90;;;;;;4894704;29;20432;-69
2022/05/09 09:57:57;;;;;;;1999.90;999.90;;;22.30;99.90;;;;;;4894966;29;20754;-69
2022/05/09 10:00:34;;;;;;;1999.90;999.90;;;22.50;99.90;;;;;;4895212;29;20451;-69
2022/05/09 10:03:16;;;;;;;1999.90;999.90;;;22.60;99.90;;;;;;4894833;29;20402;-70
2022/05/09 10:05:45;;;;;;;1999.90;999.90;;;22.80;99.90;;;;;;4894586;28;20424;-69
2022/05/09 10:08:34;;;;;;;1999.90;999.90;;;23.00;99.90;;;;;;4895263;29;20408;-70
2022/05/09 10:11:07;;;;;;;1999.90;999.90;;;23.20;99.90;;;;;;4894253;29;20436;-70
2022/05/09 10:13:47;;;;;;;1999.90;999.90;;;23.40;99.90;;;;;;4894946;29;20422;-69
2022/05/09 10:16:23;;;;;;;1999.90;999.90;;;23.50;99.90;;;;;;4894494;29;20391;-69
2022/05/09 10:18:50;;;;;;;1999.90;999.90;;;23.60;99.90;;;;;;4894838;28;20511;-69
2022/05/09 10:24:47;;;;;;;1999.90;999.90;;;23.50;99.90;;;;;;4894768;28;20420;-70
2022/05/09 10:26:57;;;;;;;1999.90;999.90;;;23.80;99.90;;;;;;4894308;29;20398;-70
2022/05/09 10:29:24;;;;;;;1999.90;999.90;;;24.10;99.90;;;;;;4903471;29;20420;-69
2022/05/09 10:31:54;;;;;;;1999.90;999.90;;;24.20;99.90;;;;;;4913432;29;20419;-69
2022/05/09 10:34:26;;;;;;;1999.90;999.90;;;24.30;99.90;;;;;;4912528;29;20432;-69
2022/05/09 10:36:58;;;;;;;1999.90;999.90;;;24.50;99.90;;;;;;4921257;29;20401;-70
2022/05/09 10:39:36;;;;;;;1999.90;999.90;;;24.70;99.90;;;;;;4913799;29;20376;-69
2022/05/09 10:42:07;;;;;;;1999.90;999.90;;;24.80;99.90;;;;;;4913027;29;20371;-70
2022/05/09 10:44:40;;;;;;;1999.90;999.90;;;25.00;99.90;;;;;;4913016;29;20485;-70
2022/05/09 10:47:18;;;;;;;1999.90;999.90;;;24.90;99.90;;;;;;4913659;29;20441;-70
2022/05/09 10:49:47;;;;;;;1999.90;999.90;;;25.00;99.90;;;;;;4913077;29;20939;-70
2022/05/09 10:52:27;;;;;;;1999.90;999.90;;;25.10;99.90;;;;;;4913294;29;20444;-70
2022/05/09 10:55:05;;;;;;;1999.90;999.90;;;25.00;99.90;;;;;;4913034;29;20445;-70
2022/05/09 10:57:59;;;;;;;1999.90;999.90;;;25.00;99.90;;;;;;4913424;29;20383;-70
2022/05/09 11:00:26;;;;;;;1999.90;999.90;;;25.20;99.90;;;;;;4911206;29;20499;-70
2022/05/09 11:03:14;;;;;;;1999.90;999.90;;;25.60;99.90;;;;;;4912710;29;21012;-70
2022/05/09 11:05:59;;;;;;;1999.90;999.90;;;25.80;99.90;;;;;;4912705;29;20499;-70
2022/05/09 11:08:35;;;;;;;1999.90;999.90;;;25.70;95.50;;;;;;4913495;29;20883;-69
2022/05/09 11:11:08;;;;;;;1999.90;999.90;;;25.70;96.50;;;;;;4912617;29;20521;-70
2022/05/09 11:14:12;;;;;;;1999.90;999.90;;;26.00;99.60;;;;;;4912973;29;20889;-70
2022/05/09 11:17:19;;;;;;;1999.90;999.90;;;26.00;96.50;;;;;;4902377;29;20420;-70
2022/05/09 11:20:13;;;;;;;1999.90;999.90;;;26.10;96.30;;;;;;4908456;29;20436;-70
2022/05/09 11:23:04;;;;;;;1999.90;999.90;;;26.20;95.50;;;;;;4913394;29;20401;-70
2022/05/09 11:26:05;;;;;;;1999.90;999.90;;;26.40;96.00;;;;;;4911917;29;20404;-70
2022/05/09 11:28:43;;;;;;;1999.90;999.90;;;26.40;92.60;;;;;;4909333;28;20425;-70
2022/05/09 11:31:23;;;;;;;1999.90;999.90;;;26.40;86.30;;;;;;4912876;29;20422;-70
2022/05/09 11:34:09;;;;;;;1999.90;999.90;;;26.50;92.40;;;;;;4912272;29;20984;-70
2022/05/09 11:37:05;;;;;;;1999.90;999.90;;;26.70;92.10;;;;;;4911956;29;20425;-70
2022/05/09 11:40:02;;;;;;;1999.90;999.90;;;26.90;88.10;;;;;;4909402;28;20801;-70
2022/05/09 11:46:01;;;;;;;1999.90;999.90;;;27.10;84.90;;;;;;4911824;29;20411;-70
2022/05/09 11:48:35;;;;;;;1999.90;999.90;;;27.30;81.20;;;;;;4912642;29;20371;-70
2022/05/09 11:51:19;;;;;;;1999.90;999.90;;;27.50;77.80;;;;;;4912772;29;21276;-70
2022/05/09 11:53:50;;;;;;;1999.90;999.90;;;27.30;64.20;;;;;;4912799;29;20432;-70
2022/05/09 11:56:17;;;;;;;1999.90;999.90;;;27.60;73.40;;;;;;4911658;29;20937;-70
2022/05/09 11:58:43;;;;;;;1999.90;999.90;;;28.30;70.80;;;;;;4912962;29;20421;-70
2022/05/09 12:01:10;;;;;;;1999.90;999.90;;;29.20;67.80;;;;;;4912710;29;20444;-70
2022/05/09 12:03:56;;;;;;;1999.90;999.90;;;30.10;64.80;;;;;;4912349;29;20929;-70
2022/05/09 12:06:29;;;;;;;1999.90;999.90;;;31.00;53.20;;;;;;4911515;29;20425;-70
2022/05/09 12:08:56;;;;;;;1999.90;999.90;;;31.60;45.00;;;;;;4912545;29;20416;-70
2022/05/09 12:11:30;;;;;;;1999.90;999.90;;;32.20;42.80;;;;;;4912163;29;20456;-70
2022/05/09 12:14:01;;;;;;;1999.90;999.90;;;32.60;36.10;;;;;;4912180;29;20435;-70
2022/05/09 12:16:35;;;;;;;1999.90;999.90;;;32.80;31.30;;;;;;4911646;29;20412;-70
2022/05/09 12:19:04;;;;;;;1999.90;999.90;;;33.00;30.60;;;;;;4912507;29;20420;-70
2022/05/09 12:21:37;;;;;;;1999.90;999.90;;;33.40;28.90;;;;;;4912464;29;20416;-70
2022/05/09 12:24:14;;;;;;;1999.90;999.90;;;33.70;26.70;;;;;;4911524;29;20439;-70
2022/05/09 12:26:43;;;;;;;1999.90;999.90;;;34.00;27.40;;;;;;4912309;29;20864;-70